createdAt,value
2023-02-13T00:04:22.146Z,7.59
2023-02-13T00:09:23.822Z,7.68
2023-02-13T00:14:25.554Z,7.74
2023-02-13T00:19:27.226Z,7.73
2023-02-13T00:24:28.937Z,7.73
2023-02-13T00:29:30.644Z,7.59
2023-02-13T00:34:32.335Z,7.55
2023-02-13T00:39:33.971Z,7.61
2023-02-13T00:44:35.626Z,7.66
2023-02-13T00:49:37.407Z,7.65
2023-02-13T00:54:39.068Z,7.63
2023-02-13T00:59:41.113Z,7.70
2023-02-13T01:04:42.709Z,7.66
2023-02-13T01:09:44.315Z,7.64
2023-02-13T01:14:46.543Z,7.73
2023-02-13T01:19:48.249Z,7.68
2023-02-13T01:24:50.286Z,7.71
2023-02-13T01:29:51.921Z,7.59
2023-02-13T01:34:53.642Z,7.53
2023-02-13T01:39:56.400Z,7.48
2023-02-13T01:45:00.645Z,7.44
2023-02-13T01:50:07.836Z,7.38
2023-02-13T01:55:10.035Z,7.32
2023-02-13T02:00:15.016Z,7.32
2023-02-13T02:05:22.037Z,7.41
2023-02-13T02:10:24.383Z,7.39
2023-02-13T02:15:26.365Z,7.49
2023-02-13T02:21:10.888Z,7.57
2023-02-13T02:26:15.607Z,7.33
2023-02-13T02:31:56.000Z,7.24
2023-02-13T02:37:07.265Z,7.28
2023-02-13T02:42:29.537Z,7.23
2023-02-13T02:48:01.804Z,7.17
2023-02-13T02:53:06.417Z,7.18
2023-02-13T02:58:40.026Z,7.27
2023-02-13T03:04:00.688Z,7.31
2023-02-13T03:09:25.613Z,7.28
2023-02-13T03:14:28.732Z,7.20
2023-02-13T03:20:13.846Z,7.22
2023-02-13T03:25:34.478Z,7.32
2023-02-13T03:31:01.530Z,7.33
2023-02-13T03:36:40.502Z,7.16
2023-02-13T03:41:49.750Z,7.08
2023-02-13T03:46:53.714Z,7.13
2023-02-13T03:52:13.877Z,7.14
2023-02-13T03:57:38.637Z,7.08
2023-02-13T04:02:54.213Z,7.05
2023-02-13T04:07:55.957Z,7.10
2023-02-13T04:13:03.438Z,7.09
2023-02-13T04:18:05.150Z,7.04
2023-02-13T04:23:10.024Z,7.00
2023-02-13T04:28:11.817Z,6.99
2023-02-13T04:33:13.454Z,6.97
2023-02-13T04:38:15.285Z,7.04
2023-02-13T04:43:16.907Z,7.08
2023-02-13T04:48:18.599Z,7.06
2023-02-13T04:53:20.289Z,6.97
2023-02-13T04:58:21.952Z,7.02
2023-02-13T05:03:23.720Z,6.99
2023-02-13T05:08:25.571Z,6.98
2023-02-13T05:13:27.258Z,6.93
2023-02-13T05:18:29.537Z,6.96
2023-02-13T05:23:31.237Z,7.04
2023-02-13T05:28:51.210Z,7.01
2023-02-13T05:33:52.957Z,7.02
2023-02-13T05:38:54.662Z,7.06
2023-02-13T05:43:56.275Z,7.08
2023-02-13T05:48:57.905Z,7.13
2023-02-13T05:53:59.590Z,7.19
2023-02-13T05:59:01.180Z,7.20
2023-02-13T06:04:04.055Z,7.24
2023-02-13T06:09:05.846Z,7.25
2023-02-13T06:14:07.677Z,7.23
2023-02-13T06:19:09.468Z,7.11
2023-02-13T06:24:11.033Z,7.16
2023-02-13T06:29:12.970Z,7.15
2023-02-13T06:34:14.638Z,7.14
2023-02-13T06:39:16.289Z,7.13
2023-02-13T06:44:17.890Z,7.07
2023-02-13T06:49:19.440Z,7.05
2023-02-13T06:54:22.575Z,7.07
2023-02-13T06:59:28.205Z,7.08
2023-02-13T07:04:29.866Z,7.08
2023-02-13T07:09:32.048Z,7.14
2023-02-13T07:14:33.648Z,7.19
2023-02-13T07:19:35.265Z,7.20
2023-02-13T07:24:38.628Z,7.26
2023-02-13T07:29:41.290Z,7.35
2023-02-13T07:34:59.545Z,7.34
2023-02-13T07:40:05.633Z,7.42
2023-02-13T07:45:08.853Z,7.36
2023-02-13T07:50:11.274Z,7.29
2023-02-13T07:55:13.012Z,7.25
2023-02-13T08:00:15.608Z,7.34
2023-02-13T08:05:17.355Z,7.25
2023-02-13T08:10:37.994Z,7.16
2023-02-13T08:15:39.764Z,7.19
2023-02-13T08:20:41.541Z,7.18
2023-02-13T08:25:43.210Z,7.15
2023-02-13T08:30:44.965Z,7.16
2023-02-13T08:35:46.693Z,7.18
2023-02-13T08:40:48.334Z,7.23
2023-02-13T08:45:50.482Z,7.19
2023-02-13T08:50:52.325Z,7.18
2023-02-13T08:55:56.011Z,7.25
2023-02-13T09:00:58.163Z,7.31
2023-02-13T09:06:01.486Z,7.29
2023-02-13T09:11:07.519Z,7.31
2023-02-13T09:16:11.459Z,7.34
2023-02-13T09:21:13.154Z,7.37
2023-02-13T09:26:16.366Z,7.43
2023-02-13T09:31:20.257Z,7.48
2023-02-13T09:36:24.519Z,7.56
2023-02-13T09:41:29.551Z,7.54
2023-02-13T09:46:37.314Z,7.65
2023-02-13T09:51:39.213Z,7.62
2023-02-13T09:56:54.699Z,7.67
2023-02-13T10:02:03.052Z,7.82
2023-02-13T10:07:30.456Z,7.85
2023-02-13T10:12:44.257Z,7.64
2023-02-13T10:17:56.793Z,7.58
2023-02-13T10:23:22.781Z,7.71
2023-02-13T10:28:39.375Z,7.76
2023-02-13T10:33:50.113Z,7.88
2023-02-13T10:39:02.216Z,7.79
2023-02-13T10:44:11.002Z,7.90
2023-02-13T10:49:30.976Z,7.97
2023-02-13T10:54:54.380Z,7.98
2023-02-13T11:00:16.356Z,8.01
2023-02-13T11:05:22.266Z,7.98
2023-02-13T11:10:26.676Z,8.04
2023-02-13T11:15:31.590Z,8.13
2023-02-13T11:20:44.575Z,8.50
2023-02-13T11:26:03.164Z,8.47
2023-02-13T11:31:14.376Z,8.32
2023-02-13T11:36:25.166Z,8.37
2023-02-13T11:41:40.952Z,8.31
2023-02-13T11:46:54.082Z,8.34
2023-02-13T11:52:01.577Z,8.49
2023-02-13T11:57:16.110Z,8.65
2023-02-13T12:02:19.943Z,8.64
2023-02-13T12:07:27.570Z,8.84
2023-02-13T12:12:37.518Z,9.05
2023-02-13T12:17:44.949Z,9.41
2023-02-13T12:22:58.580Z,9.46
2023-02-13T12:28:14.012Z,9.69
2023-02-13T12:33:26.147Z,9.63
2023-02-13T12:39:00.628Z,9.66
2023-02-13T12:44:46.595Z,9.69
2023-02-13T12:49:59.034Z,9.58
2023-02-13T12:55:14.407Z,9.50
2023-02-13T13:00:30.819Z,9.49
2023-02-13T13:05:43.315Z,9.52
2023-02-13T13:11:00.473Z,9.47
2023-02-13T13:16:23.537Z,9.47
2023-02-13T13:21:44.074Z,9.50
2023-02-13T13:26:49.676Z,9.51
2023-02-13T13:32:00.157Z,9.51
2023-02-13T13:37:30.676Z,9.49
2023-02-13T13:42:43.047Z,9.49
2023-02-13T13:47:50.889Z,9.51
2023-02-13T13:53:18.545Z,9.46
2023-02-13T13:58:39.323Z,9.53
2023-02-13T14:03:44.235Z,9.57
2023-02-13T14:08:45.978Z,9.59
2023-02-13T14:13:47.574Z,9.60
2023-02-13T14:18:50.747Z,9.64
2023-02-13T14:23:53.596Z,9.63
2023-02-13T14:29:17.163Z,9.61
2023-02-13T14:34:26.822Z,9.64
2023-02-13T14:39:30.948Z,9.57
2023-02-13T14:44:47.244Z,9.64
2023-02-13T14:49:51.125Z,9.61
2023-02-13T14:54:56.949Z,9.64
2023-02-13T15:00:07.275Z,9.60
2023-02-13T15:05:14.933Z,9.63
2023-02-13T15:10:41.096Z,9.58
2023-02-13T15:15:43.092Z,9.55
2023-02-13T15:20:45.356Z,9.55
2023-02-13T15:25:47.143Z,9.55
2023-02-13T15:31:06.587Z,9.59
2023-02-13T15:36:17.952Z,9.56
2023-02-13T15:41:23.889Z,9.56
2023-02-13T15:46:33.161Z,9.50
2023-02-13T15:51:35.383Z,9.49
2023-02-13T15:56:38.405Z,9.43
2023-02-13T16:01:44.383Z,9.41
2023-02-13T16:06:47.519Z,9.48
2023-02-13T16:11:50.340Z,9.45
2023-02-13T16:16:56.569Z,9.40
2023-02-13T16:22:03.898Z,9.43
2023-02-13T16:27:14.350Z,9.38
2023-02-13T16:32:26.556Z,9.31
2023-02-13T16:37:33.613Z,9.33
2023-02-13T16:42:35.275Z,9.25
2023-02-13T16:47:36.879Z,9.33
2023-02-13T16:52:38.586Z,9.32
2023-02-13T16:57:41.860Z,9.30
2023-02-13T17:02:43.605Z,9.30
2023-02-13T17:07:48.456Z,9.24
2023-02-13T17:12:51.883Z,9.22
2023-02-13T17:17:54.489Z,9.23
2023-02-13T17:23:01.811Z,9.17
2023-02-13T17:28:09.411Z,9.15
2023-02-13T17:33:21.914Z,9.09
2023-02-13T17:38:24.282Z,9.06
2023-02-13T17:43:28.040Z,8.98
2023-02-13T17:48:30.012Z,8.97
2023-02-13T17:53:32.006Z,8.91
2023-02-13T17:58:33.806Z,8.94
2023-02-13T18:03:35.406Z,8.90
2023-02-13T18:08:37.076Z,8.90
2023-02-13T18:13:40.779Z,8.86
2023-02-13T18:18:42.504Z,8.77
2023-02-13T18:23:44.319Z,8.71
2023-02-13T18:28:45.960Z,8.68
2023-02-13T18:33:47.975Z,8.60
2023-02-13T18:38:51.133Z,8.57
2023-02-13T18:43:52.912Z,8.51
2023-02-13T18:48:54.618Z,8.44
2023-02-13T18:53:56.257Z,8.41
2023-02-13T18:58:57.922Z,8.39
2023-02-13T19:04:01.540Z,8.35
2023-02-13T19:09:03.160Z,8.27
2023-02-13T19:14:05.597Z,8.20
2023-02-13T19:19:08.372Z,8.15
2023-02-13T19:24:11.835Z,8.11
2023-02-13T19:29:13.481Z,8.11
2023-02-13T19:34:15.101Z,8.04
2023-02-13T19:39:18.266Z,8.01
2023-02-13T19:44:20.265Z,7.97
2023-02-13T19:49:22.650Z,7.97
2023-02-13T19:54:24.306Z,7.98
2023-02-13T19:59:27.463Z,7.96
2023-02-13T20:04:29.400Z,7.92
2023-02-13T20:09:31.099Z,7.85
2023-02-13T20:14:34.017Z,7.82
2023-02-13T20:19:36.272Z,7.75
2023-02-13T20:24:38.039Z,7.70
2023-02-13T20:29:40.407Z,7.72
2023-02-13T20:34:59.193Z,7.70
2023-02-13T20:40:02.045Z,7.71
2023-02-13T20:45:04.050Z,7.66
2023-02-13T20:50:06.368Z,7.57
2023-02-13T20:55:08.709Z,7.55
2023-02-13T21:00:13.281Z,7.52
2023-02-13T21:05:14.950Z,7.48
2023-02-13T21:10:16.838Z,7.47
2023-02-13T21:15:18.979Z,7.40
2023-02-13T21:20:20.987Z,7.18
2023-02-13T21:25:23.082Z,7.04
2023-02-13T21:30:24.840Z,7.06
2023-02-13T21:35:26.433Z,7.10
2023-02-13T21:40:28.120Z,7.05
2023-02-13T21:45:29.788Z,7.02
2023-02-13T21:50:31.456Z,7.06
2023-02-13T21:55:33.210Z,7.06
2023-02-13T22:00:34.867Z,7.06
2023-02-13T22:05:36.838Z,7.09
2023-02-13T22:10:39.184Z,7.07
2023-02-13T22:15:41.178Z,7.06
2023-02-13T22:20:43.137Z,7.04
2023-02-13T22:25:51.220Z,6.97
2023-02-13T22:30:53.173Z,6.82
2023-02-13T22:35:54.871Z,6.80
2023-02-13T22:40:56.975Z,6.78
2023-02-13T22:46:04.105Z,6.72
2023-02-13T22:51:09.315Z,6.67
2023-02-13T22:56:12.819Z,6.68
2023-02-13T23:01:18.085Z,6.70
2023-02-13T23:06:20.141Z,6.67
2023-02-13T23:11:43.882Z,6.52
2023-02-13T23:17:04.974Z,6.30
2023-02-13T23:22:06.644Z,6.14
2023-02-13T23:27:08.350Z,6.15
2023-02-13T23:32:10.153Z,6.26
2023-02-13T23:37:11.899Z,6.14
2023-02-13T23:42:13.562Z,6.20
2023-02-13T23:47:15.320Z,6.08
2023-02-13T23:52:17.480Z,6.11
2023-02-13T23:57:19.462Z,6.12
